createdAt,value
2019-02-23T00:02:06.489Z,7.93
2019-02-23T00:07:21.266Z,7.27
2019-02-23T00:12:36.199Z,6.67
2019-02-23T00:17:50.667Z,7.80
2019-02-23T00:23:05.117Z,9.60
2019-02-23T00:28:19.722Z,7.80
2019-02-23T00:33:34.362Z,8.57
2019-02-23T00:38:49.137Z,7.07
2019-02-23T00:44:03.416Z,6.70
2019-02-23T00:49:18.084Z,6.20
2019-02-23T00:54:32.501Z,7.47
2019-02-23T00:59:47.070Z,8.13
2019-02-23T01:05:01.480Z,7.87
2019-02-23T01:10:15.650Z,7.47
2019-02-23T01:15:30.020Z,6.27
2019-02-23T01:20:44.917Z,8.43
2019-02-23T01:25:59.789Z,10.40
2019-02-23T01:31:14.159Z,7.97
2019-02-23T01:36:28.534Z,6.00
2019-02-23T01:41:43.481Z,8.07
2019-02-23T01:46:58.170Z,8.50
2019-02-23T01:52:12.789Z,9.70
2019-02-23T01:57:27.595Z,7.53
2019-02-23T02:02:42.267Z,7.03
2019-02-23T02:07:56.697Z,8.37
2019-02-23T02:13:11.291Z,8.83
2019-02-23T02:18:25.787Z,8.07
2019-02-23T02:23:40.366Z,7.50
2019-02-23T02:28:55.022Z,8.30
2019-02-23T02:34:11.247Z,8.63
2019-02-23T02:39:25.956Z,8.87
2019-02-23T02:44:48.152Z,8.63
2019-02-23T02:50:24.576Z,8.63
2019-02-23T02:55:36.986Z,8.13
2019-02-23T03:00:51.699Z,10.10
2019-02-23T03:06:06.053Z,11.20
2019-02-23T03:11:20.447Z,9.33
2019-02-23T03:16:34.959Z,9.67
2019-02-23T03:21:49.524Z,10.23
2019-02-23T03:27:04.243Z,9.87
2019-02-23T03:32:18.754Z,10.60
2019-02-23T03:37:33.267Z,9.80
2019-02-23T03:42:47.739Z,11.83
2019-02-23T03:48:02.067Z,11.53
2019-02-23T03:53:16.411Z,13.77
2019-02-23T03:58:30.942Z,11.17
2019-02-23T04:03:45.410Z,12.00
2019-02-23T04:09:02.681Z,11.37
2019-02-23T04:14:18.176Z,9.33
2019-02-23T04:19:32.783Z,10.80
2019-02-23T04:24:47.409Z,9.23
2019-02-23T04:30:02.043Z,10.20
2019-02-23T04:35:17.706Z,10.23
2019-02-23T04:40:32.134Z,12.23
2019-02-23T04:45:46.822Z,11.13
2019-02-23T04:51:13.528Z,11.53
2019-02-23T04:56:17.653Z,11.97
2019-02-23T05:01:32.211Z,11.70
2019-02-23T05:06:46.873Z,10.83
2019-02-23T05:12:01.526Z,13.33
2019-02-23T05:17:16.150Z,11.63
2019-02-23T05:22:30.490Z,12.00
2019-02-23T05:27:44.985Z,11.73
2019-02-23T05:32:59.868Z,14.37
2019-02-23T05:38:14.180Z,12.60
2019-02-23T05:43:28.992Z,11.07
2019-02-23T05:48:43.762Z,16.13
2019-02-23T05:53:58.207Z,11.33
2019-02-23T05:59:12.401Z,13.33
2019-02-23T06:04:27.160Z,14.33
2019-02-23T06:09:42.478Z,12.80
2019-02-23T06:14:57.135Z,15.40
2019-02-23T06:20:11.863Z,14.13
2019-02-23T06:25:26.686Z,15.77
2019-02-23T06:30:41.404Z,14.63
2019-02-23T06:35:55.872Z,13.03
2019-02-23T06:41:10.736Z,12.50
2019-02-23T06:46:24.848Z,13.83
2019-02-23T06:51:39.751Z,14.40
2019-02-23T06:56:54.226Z,17.20
2019-02-23T07:02:09.207Z,18.00
2019-02-23T07:07:23.489Z,14.73
2019-02-23T07:12:38.117Z,15.17
2019-02-23T07:17:52.915Z,13.53
2019-02-23T07:23:07.539Z,18.70
2019-02-23T07:28:22.142Z,14.33
2019-02-23T07:33:36.544Z,18.17
2019-02-23T07:38:51.368Z,12.27
2019-02-23T07:44:05.543Z,14.93
2019-02-23T07:49:27.851Z,16.80
2019-02-23T07:54:42.693Z,14.03
2019-02-23T07:59:57.674Z,16.13
2019-02-23T08:05:12.612Z,18.03
2019-02-23T08:10:27.120Z,20.80
2019-02-23T08:15:41.860Z,15.47
2019-02-23T08:20:59.542Z,14.83
2019-02-23T08:26:14.263Z,13.50
2019-02-23T08:31:28.994Z,16.27
2019-02-23T08:36:43.431Z,14.67
2019-02-23T08:41:57.738Z,13.50
2019-02-23T08:47:12.345Z,13.67
2019-02-23T08:52:26.750Z,14.40
2019-02-23T08:57:41.272Z,16.33
2019-02-23T09:02:56.076Z,13.03
2019-02-23T09:08:17.801Z,12.27
2019-02-23T09:13:40.518Z,12.87
2019-02-23T09:18:56.251Z,12.53
2019-02-23T09:24:11.147Z,12.20
2019-02-23T09:29:25.474Z,12.50
2019-02-23T09:34:40.225Z,11.33
2019-02-23T09:39:54.987Z,13.60
2019-02-23T09:45:11.139Z,11.47
2019-02-23T09:50:25.467Z,12.10
2019-02-23T09:55:39.688Z,7.67
2019-02-23T10:00:54.044Z,7.67
2019-02-23T10:06:08.430Z,8.30
2019-02-23T10:11:22.877Z,9.90
2019-02-23T10:16:37.655Z,9.93
2019-02-23T10:21:52.345Z,6.73
2019-02-23T10:27:06.932Z,6.47
2019-02-23T10:32:21.342Z,7.03
2019-02-23T10:37:35.716Z,7.23
2019-02-23T10:42:50.980Z,5.43
2019-02-23T10:48:05.739Z,6.03
2019-02-23T10:53:21.004Z,5.77
2019-02-23T10:58:35.957Z,6.47
2019-02-23T11:03:50.591Z,4.77
2019-02-23T11:09:05.800Z,5.50
2019-02-23T11:14:24.751Z,6.63
2019-02-23T11:20:02.896Z,3.73
2019-02-23T11:25:19.108Z,5.10
2019-02-23T11:30:33.478Z,4.10
2019-02-23T11:35:48.213Z,4.30
2019-02-23T11:41:05.952Z,3.37
2019-02-23T11:46:20.669Z,3.37
2019-02-23T11:51:35.106Z,3.33
2019-02-23T11:56:49.745Z,2.97
2019-02-23T12:02:04.187Z,3.07
2019-02-23T12:07:18.722Z,3.60
2019-02-23T12:12:33.334Z,3.03
2019-02-23T12:17:47.863Z,3.10
2019-02-23T12:23:03.592Z,3.17
2019-02-23T12:28:21.452Z,3.03
2019-02-23T12:33:36.265Z,3.73
2019-02-23T12:38:51.366Z,3.10
2019-02-23T12:44:08.966Z,2.43
2019-02-23T12:49:23.832Z,4.33
2019-02-23T12:54:38.369Z,3.10
2019-02-23T12:59:53.016Z,4.10
2019-02-23T13:05:08.074Z,5.30
2019-02-23T13:10:22.771Z,3.33
2019-02-23T13:16:02.840Z,2.77
2019-02-23T13:21:45.989Z,4.63
2019-02-23T13:27:12.891Z,3.50
2019-02-23T13:33:13.680Z,5.33
2019-02-23T13:38:44.289Z,1.87
2019-02-23T13:44:31.321Z,4.20
2019-02-23T13:50:33.596Z,2.70
2019-02-23T13:56:23.380Z,2.13
2019-02-23T14:02:12.235Z,2.00
2019-02-23T14:08:11.475Z,1.80
2019-02-23T14:13:52.804Z,1.93
2019-02-23T14:19:24.600Z,2.47
2019-02-23T14:25:25.468Z,2.00
2019-02-23T14:31:07.280Z,1.70
2019-02-23T14:36:48.959Z,2.80
2019-02-23T14:42:54.525Z,1.60
2019-02-23T14:48:38.914Z,1.43
2019-02-23T14:54:40.306Z,1.67
2019-02-23T15:00:47.881Z,3.13
2019-02-23T15:06:37.537Z,1.77
2019-02-23T15:12:22.118Z,1.60
2019-02-23T15:18:03.540Z,1.20
2019-02-23T15:24:05.011Z,1.70
2019-02-23T15:30:08.924Z,3.23
2019-02-23T15:35:52.322Z,3.00
2019-02-23T15:41:55.989Z,1.73
2019-02-23T15:48:00.461Z,1.37
2019-02-23T15:53:18.913Z,1.03
2019-02-23T15:58:33.402Z,13.97
2019-02-23T16:03:48.732Z,10.03
2019-02-23T16:09:03.293Z,5.77
2019-02-23T16:14:19.191Z,3.17
2019-02-23T16:19:33.682Z,5.37
2019-02-23T16:24:48.123Z,3.93
2019-02-23T16:30:02.233Z,3.27
2019-02-23T16:35:17.271Z,2.47
2019-02-23T16:40:31.823Z,3.90
2019-02-23T16:45:46.358Z,2.00
2019-02-23T16:51:00.802Z,2.47
2019-02-23T16:56:15.296Z,2.73
2019-02-23T17:01:30.135Z,2.53
2019-02-23T17:06:44.371Z,1.50
2019-02-23T17:12:01.797Z,1.90
2019-02-23T17:17:15.145Z,1.53
2019-02-23T17:22:29.889Z,2.53
2019-02-23T17:27:44.642Z,2.50
2019-02-23T17:32:59.271Z,2.20
2019-02-23T17:38:21.344Z,2.73
2019-02-23T17:43:35.920Z,3.10
2019-02-23T17:48:50.343Z,2.00
2019-02-23T17:54:04.721Z,3.00
2019-02-23T17:59:19.065Z,2.77
2019-02-23T18:04:33.824Z,3.90
2019-02-23T18:09:48.927Z,3.93
2019-02-23T18:15:03.969Z,2.97
2019-02-23T18:20:18.326Z,3.77
2019-02-23T18:25:32.947Z,2.23
2019-02-23T18:30:47.676Z,5.10
2019-02-23T18:36:02.436Z,3.10
2019-02-23T18:41:17.246Z,2.30
2019-02-23T18:46:31.616Z,2.63
2019-02-23T18:51:47.319Z,2.57
2019-02-23T18:57:06.389Z,2.23
2019-02-23T19:02:21.001Z,3.70
2019-02-23T19:07:40.449Z,2.30
2019-02-23T19:12:54.954Z,2.73
2019-02-23T19:18:09.689Z,3.53
2019-02-23T19:23:24.250Z,2.60
2019-02-23T19:28:43.295Z,1.97
2019-02-23T19:34:10.472Z,2.00
2019-02-23T19:39:27.366Z,2.63
2019-02-23T19:44:41.502Z,2.13
2019-02-23T19:50:03.510Z,2.00
2019-02-23T19:55:18.452Z,2.07
2019-02-23T20:00:32.914Z,6.47
2019-02-23T20:05:47.549Z,5.73
2019-02-23T20:11:02.324Z,3.77
2019-02-23T20:16:16.590Z,2.40
2019-02-23T20:21:30.993Z,3.43
2019-02-23T20:26:45.808Z,2.33
2019-02-23T20:32:00.129Z,3.30
2019-02-23T20:37:14.556Z,2.00
2019-02-23T20:42:29.122Z,2.57
2019-02-23T20:47:44.114Z,2.27
2019-02-23T20:52:58.634Z,3.77
2019-02-23T20:58:13.280Z,2.20
2019-02-23T21:03:32.998Z,2.23
2019-02-23T21:08:47.645Z,3.83
2019-02-23T21:14:02.653Z,2.03
2019-02-23T21:19:19.533Z,1.93
2019-02-23T21:24:36.859Z,1.77
2019-02-23T21:29:58.437Z,2.50
2019-02-23T21:35:15.475Z,1.70
2019-02-23T21:40:30.948Z,2.20
2019-02-23T21:45:45.604Z,2.37
2019-02-23T21:51:00.248Z,1.50
2019-02-23T21:56:14.891Z,2.90
2019-02-23T22:01:29.547Z,2.23
2019-02-23T22:06:43.668Z,1.67
2019-02-23T22:11:58.470Z,1.73
2019-02-23T22:17:12.888Z,1.80
2019-02-23T22:22:27.712Z,2.30
2019-02-23T22:27:42.209Z,1.17
2019-02-23T22:32:56.751Z,3.80
2019-02-23T22:38:12.092Z,1.87
2019-02-23T22:43:29.540Z,2.07
2019-02-23T22:48:43.948Z,1.83
2019-02-23T22:53:58.779Z,2.03
2019-02-23T22:59:13.502Z,1.57
2019-02-23T23:04:28.463Z,1.40
2019-02-23T23:09:43.297Z,1.63
2019-02-23T23:14:58.107Z,2.87
2019-02-23T23:20:13.126Z,1.77
2019-02-23T23:25:28.239Z,2.00
2019-02-23T23:30:49.830Z,1.90
2019-02-23T23:36:04.678Z,1.40
2019-02-23T23:41:19.197Z,3.70
2019-02-23T23:46:33.937Z,1.73
2019-02-23T23:51:48.494Z,1.30
2019-02-23T23:57:02.976Z,1.73
